Terminal Aerodrome Forecast
Issued by NWS Goodland, KS

Home | Current Version | Previous Version | Text Only | Print | Product List | Glossary On
Versions: 1 2 3 4 5 6 7 8 9 10 11 12 13 14
000
FTUS43 KGLD 181120
TAFGLD
TAF
KGLD 181120Z 1812/1912 28007KT P6SM FEW200
     FM181400 33008KT P6SM FEW200
     FM181700 03007KT P6SM SCT200
     FM182100 08007KT P6SM FEW070 SCT200 PROB30 1904/1907 -TSRA
      BKN100CB
     FM190800 13007KT P6SM SCT150 BKN250=

USA.gov is the U.S. government's official web portal to all federal, state and local government web resources and services.